Asteria — WDE5489 — position and weather

sailwx.info

Track history (hours):
 
Tides and Currents Weather Stations Pressure Air Temp Water Temp Dewpoint Dewpoint Depression Visibility Wind Speed Wind Dir Waves Ship Positions

Asteria

Owner: Boston HarborCruises, Boston, MA. More information available from US FCC via Universal Licensing System and Coast Guard Vessel Documentation Center.

Last reported at 2018-Jun-23 00:50 UTC. Time now 2018-Jun-23 09:52 UTC.
Position N 42°16' W 070°56'.

Length 33 m; draft 2 m.

Type: High speed craft. MMSI: 367367470.

Date/timePositionNaut miles runAvg speedWind from/ knotsBaromVisibWave heightAir tempDewpointWater temp
2018-Jun-23 00:50N 42°16' W 070°56'721.9
2018-Jun-23 00:30N 42°21' W 071°03'2 5.0
2018-Jun-23 00:00N 42°20' W 071°00'611.2
2018-Jun-22 23:30N 42°16' W 070°55'816.6
2018-Jun-22 23:00N 42°21' W 071°03'2 4.1
2018-Jun-22 22:30N 42°20' W 071°00'712.8
2018-Jun-22 22:00N 42°15' W 070°55'714.3
2018-Jun-22 21:31N 42°21' W 071°01'1 2.4
2018-Jun-22 21:00N 42°22' W 071°02'3 6.7
2018-Jun-22 20:30N 42°19' W 070°59'5 9.4
2018-Jun-22 20:00N 42°15' W 070°55'816.5
2018-Jun-22 19:30N 42°21' W 071°02'1 1.0
2018-Jun-22 19:00N 42°22' W 071°03'1 1.1
2018-Jun-22 18:30N 42°22' W 071°02'1 1.3
2018-Jun-22 18:00N 42°22' W 071°03'1 1.5
2018-Jun-22 17:31N 42°21' W 071°02'1631.6
2018-Jun-22 17:00N 42°22' W 070°41'1326.3
2018-Jun-22 16:30N 42°24' W 070°23'0 0.7
2018-Jun-22 15:57N 42°24' W 070°22'1 2.9
2018-Jun-22 15:30N 42°24' W 070°24'3 5.7
2018-Jun-22 15:00N 42°24' W 070°28'1530.9
2018-Jun-22 14:30N 42°22' W 070°48'1121.5
2018-Jun-22 14:00N 42°22' W 071°03'0 0.5
2018-Jun-22 13:30N 42°22' W 071°03'611.7
2018-Jun-22 13:00N 42°17' W 070°57'3 5.1
2018-Jun-22 12:30N 42°15' W 070°55'816.8
2018-Jun-22 12:00N 42°21' W 071°03'510.9
2018-Jun-22 11:31N 42°18' W 070°58'3 5.5
2018-Jun-22 10:58N 42°15' W 070°55'1 2.0
2018-Jun-22 10:30N 42°16' W 070°56'1 1.8
2018-Jun-22 10:00N 42°15' W 070°55'0 0.0
2018-Jun-22 00:01N 42°16' W 070°55'0 6.6
2018-Jun-22 00:00N 42°16' W 070°55'815.8
2018-Jun-21 23:30N 42°21' W 071°03'2 4.5
2018-Jun-21 23:01N 42°20' W 071°00'612.2
2018-Jun-21 22:30N 42°15' W 070°55'816.7
2018-Jun-21 22:00N 42°21' W 071°03'2 4.4
2018-Jun-21 21:31N 42°20' W 071°00'612.6
2018-Jun-21 21:00N 42°15' W 070°55'816.6
2018-Jun-21 20:30N 42°21' W 071°03'1 1.3
2018-Jun-21 20:00N 42°22' W 071°02'1 1.1
2018-Jun-21 19:30N 42°22' W 071°03'0 0.0
2018-Jun-21 19:00N 42°22' W 071°03'0 0.0
2018-Jun-21 18:31N 42°22' W 071°03'0 0.2
2018-Jun-21 18:00N 42°22' W 071°03'5 9.8
2018-Jun-21 17:30N 42°20' W 070°57'1632.5
2018-Jun-21 17:00N 42°18' W 070°35'1631.6
2018-Jun-21 16:30N 42°17' W 070°14'3 5.2
2018-Jun-21 15:59N 42°16' W 070°10'1013.2
2018-Jun-21 15:13N 42°22' W 070°21'732.5
2018-Jun-21 15:00N 42°24' W 070°30'1631.9
2018-Jun-21 14:30N 42°23' W 070°51'917.9
2018-Jun-21 14:01N 42°22' W 071°03'0 0.2
2018-Jun-21 13:30N 42°22' W 071°03'1 1.1
2018-Jun-21 13:00N 42°22' W 071°02'0 0.8
2018-Jun-21 12:30N 42°21' W 071°03'611.2
2018-Jun-21 12:00N 42°17' W 070°57'3 4.4
2018-Jun-21 11:25N 42°15' W 070°55'716.9
2018-Jun-21 11:01N 42°21' W 071°01'2 3.1
2018-Jun-21 10:30N 42°21' W 071°03'815.9
2018-Jun-21 09:59N 42°15' W 070°55'0 0.0
2018-Jun-21 09:30N 42°15' W 070°55'1 0.1
2018-Jun-21 00:59N 42°16' W 070°55'816.0
2018-Jun-21 00:30N 42°21' W 071°03'4 8.6
2018-Jun-21 00:00N 42°18' W 070°59'4 7.7
2018-Jun-20 23:30N 42°16' W 070°55'816.6
2018-Jun-20 23:01N 42°21' W 071°03'3 6.2
2018-Jun-20 22:30N 42°19' W 070°60'510.4
2018-Jun-20 22:00N 42°15' W 070°55'714.0
2018-Jun-20 21:30N 42°21' W 071°01'2 3.1
2018-Jun-20 21:00N 42°21' W 071°03'3 5.8
2018-Jun-20 20:30N 42°20' W 070°60'510.6
2018-Jun-20 20:00N 42°15' W 070°55'816.7
2018-Jun-20 19:30N 42°21' W 071°02'0 0.8
2018-Jun-20 19:00N 42°21' W 071°03'1 1.4
2018-Jun-20 18:30N 42°22' W 071°02'1 1.3
2018-Jun-20 18:00N 42°22' W 071°03'611.2
2018-Jun-20 17:30N 42°21' W 070°56'1733.6
2018-Jun-20 17:01N 42°27' W 070°34'1529.3
2018-Jun-20 16:31N 42°29' W 070°15'1020.4
2018-Jun-20 16:00N 42°27' W 070°28'1 1.5
2018-Jun-20 15:30N 42°27' W 070°27'611.6
2018-Jun-20 15:00N 42°23' W 070°34'1529.7
2018-Jun-20 14:30N 42°21' W 070°54'713.8
2018-Jun-20 14:00N 42°22' W 071°03'510.5
2018-Jun-20 13:30N 42°18' W 070°58'3 6.3
2018-Jun-20 13:00N 42°16' W 070°55'816.5
2018-Jun-20 12:30N 42°21' W 071°03'510.2
2018-Jun-20 12:00N 42°18' W 070°58'3 5.6
2018-Jun-20 11:26N 42°15' W 070°55'717.2
2018-Jun-20 11:01N 42°21' W 071°01'1 2.5
2018-Jun-20 10:30N 42°21' W 071°03'814.7
2018-Jun-20 09:56N 42°15' W 070°55'0 0.0
2018-Jun-20 09:31N 42°15' W 070°55'1 0.1
2018-Jun-20 00:48N 42°16' W 070°56'725.1
2018-Jun-20 00:31N 42°21' W 071°03'2 4.2
2018-Jun-20 00:01N 42°20' W 071°00'612.7
2018-Jun-19 23:31N 42°15' W 070°55'816.6
2018-Jun-19 23:00N 42°21' W 071°03'3 6.9
2018-Jun-19 22:30N 42°19' W 070°59'5 9.8
2018-Jun-19 22:00N 42°15' W 070°55'714.3
2018-Jun-19 21:30N 42°21' W 071°01'1 2.5
2018-Jun-19 21:01N 42°21' W 071°03'2 4.9
2018-Jun-19 20:30N 42°20' W 070°60'611.5
2018-Jun-19 20:00N 42°15' W 070°55'816.5
2018-Jun-19 19:30N 42°21' W 071°02'0 0.8
2018-Jun-19 19:00N 42°21' W 071°03'0 0.5
2018-Jun-19 18:31N 42°21' W 071°03'0 0.6
2018-Jun-19 18:01N 42°22' W 071°02'0 1.0
2018-Jun-19 17:30N 42°22' W 071°03'612.5
2018-Jun-19 17:00N 42°21' W 070°55'1631.4
2018-Jun-19 16:30N 42°25' W 070°34'5 9.0
2018-Jun-19 16:00N 42°27' W 070°28'2 3.5
2018-Jun-19 15:30N 42°25' W 070°26'3 5.2
2018-Jun-19 15:01N 42°24' W 070°29'1631.5
2018-Jun-19 14:29N 42°23' W 070°51'918.6
2018-Jun-19 14:00N 42°22' W 071°03'0 0.0
2018-Jun-19 13:30N 42°22' W 071°03'0 0.0
2018-Jun-19 13:00N 42°22' W 071°03'0 0.5
2018-Jun-19 12:30N 42°21' W 071°03'511.0
2018-Jun-19 12:00N 42°17' W 070°58'3 5.7
2018-Jun-19 11:30N 42°15' W 070°55'611.5
2018-Jun-19 11:00N 42°20' W 070°60'2 4.9
2018-Jun-19 10:30N 42°21' W 071°02'811.9
2018-Jun-19 09:49N 42°15' W 070°55'0 0.0
2018-Jun-19 09:30N 42°15' W 070°55'0 0.0
2018-Jun-19 01:04N 42°15' W 070°55'0 1.4
2018-Jun-19 01:01N 42°15' W 070°55'816.6
2018-Jun-19 00:31N 42°21' W 071°03'2 3.4
2018-Jun-19 00:00N 42°21' W 071°01'713.5
2018-Jun-18 23:30N 42°15' W 070°55'816.9
2018-Jun-18 23:00N 42°21' W 071°03'2 3.8
2018-Jun-18 22:30N 42°21' W 071°01'713.4
2018-Jun-18 22:01N 42°15' W 070°55'714.1
2018-Jun-18 21:31N 42°21' W 071°01'1 2.6
2018-Jun-18 21:01N 42°21' W 071°03'2 4.0
2018-Jun-18 20:30N 42°20' W 071°00'612.4
2018-Jun-18 20:00N 42°15' W 070°55'816.7
2018-Jun-18 19:30N 42°21' W 071°02'0 0.8
2018-Jun-18 19:01N 42°21' W 071°03'1 1.4
2018-Jun-18 18:31N 42°22' W 071°02'1 1.3
2018-Jun-18 18:00N 42°22' W 071°03'0 0.5
2018-Jun-18 17:31N 42°22' W 071°03'1325.5
2018-Jun-18 17:00N 42°21' W 070°45'1326.5
2018-Jun-18 16:31N 42°24' W 070°28'2 3.3
2018-Jun-18 15:58N 42°26' W 070°27'2 3.6
2018-Jun-18 15:30N 42°27' W 070°25'510.9
2018-Jun-18 15:00N 42°24' W 070°32'1528.8
2018-Jun-18 14:30N 42°21' W 070°51'918.0
2018-Jun-18 14:00N 42°22' W 071°03'1 1.3
2018-Jun-18 13:30N 42°22' W 071°02'5 9.3
2018-Jun-18 13:00N 42°18' W 070°58'3 6.9
2018-Jun-18 12:30N 42°15' W 070°55'816.5
2018-Jun-18 12:00N 42°21' W 071°03'5 9.6
2018-Jun-18 11:30N 42°18' W 070°58'4 6.6
2018-Jun-18 10:58N 42°15' W 070°55'1 1.5
2018-Jun-18 10:30N 42°16' W 070°56'1 1.3
2018-Jun-18 10:00N 42°15' W 070°55'0 0.3
2018-Jun-18 09:30N 42°15' W 070°55'1 0.1
2018-Jun-17 23:26N 42°16' W 070°56'717.1
2018-Jun-17 23:00N 42°22' W 071°03'2 4.2
2018-Jun-17 22:30N 42°21' W 071°00'1631.3
2018-Jun-17 22:00N 42°23' W 070°40'1122.8
2018-Jun-17 21:30N 42°26' W 070°25'1 1.1
2018-Jun-17 21:00N 42°26' W 070°24'4 7.0
2018-Jun-17 20:30N 42°24' W 070°28'1631.6
2018-Jun-17 20:00N 42°23' W 070°50'1019.8
2018-Jun-17 19:30N 42°22' W 071°03'0 0.0
2018-Jun-17 19:00N 42°22' W 071°03'1020.1
2018-Jun-17 18:31N 42°25' W 070°51'1632.2
2018-Jun-17 18:00N 42°36' W 070°34'918.2
2018-Jun-17 17:31N 42°29' W 070°26'4 7.2
2018-Jun-17 17:00N 42°25' W 070°24'1 2.2
2018-Jun-17 16:30N 42°24' W 070°25'612.0
2018-Jun-17 16:00N 42°25' W 070°33'1530.8
2018-Jun-17 15:30N 42°22' W 070°54'713.5
2018-Jun-17 15:00N 42°22' W 071°03'0 0.0
2018-Jun-17 14:31N 42°22' W 071°03'1 2.5
2018-Jun-17 14:00N 42°23' W 071°03'0 0.3
2018-Jun-17 13:30N 42°23' W 071°03'1 2.7
2018-Jun-17 13:01N 42°22' W 071°02'714.7
2018-Jun-17 12:30N 42°16' W 070°56'0 0.0
2018-Jun-17 00:45N 42°16' W 070°56'729.3
2018-Jun-17 00:30N 42°21' W 071°02'1 1.8
2018-Jun-17 00:01N 42°22' W 071°03'0 0.0
2018-Jun-16 23:31N 42°22' W 071°03'5 9.5
2018-Jun-16 23:01N 42°20' W 070°57'1631.8
2018-Jun-16 22:31N 42°23' W 070°36'917.2
2018-Jun-16 22:00N 42°25' W 070°24'1 2.9
2018-Jun-16 21:30N 42°25' W 070°26'0 0.8
2018-Jun-16 21:00N 42°25' W 070°26'2 4.8
2018-Jun-16 20:31N 42°24' W 070°29'1732.4
2018-Jun-16 19:58N 42°21' W 070°52'817.0
2018-Jun-16 19:30N 42°22' W 071°03'0 0.0
2018-Jun-16 19:00N 42°22' W 071°03'5 9.2
2018-Jun-16 18:30N 42°20' W 070°57'1529.6
2018-Jun-16 18:01N 42°30' W 070°42'1428.9
2018-Jun-16 17:30N 42°38' W 070°26'0 0.5
2018-Jun-16 17:00N 42°38' W 070°26'1 3.0
2018-Jun-16 16:31N 42°40' W 070°26'1019.3
2018-Jun-16 16:00N 42°33' W 070°36'1631.6
2018-Jun-16 15:30N 42°23' W 070°53'815.9
2018-Jun-16 15:00N 42°22' W 071°03'0 0.0
2018-Jun-16 14:30N 42°22' W 071°03'0 0.2
2018-Jun-16 14:00N 42°22' W 071°03'1 1.1
2018-Jun-16 13:30N 42°22' W 071°02'3 6.5
2018-Jun-16 13:00N 42°19' W 070°59'3 6.9
2018-Jun-16 12:30N 42°17' W 070°56'1 0.1
2018-Jun-15 23:54N 42°16' W 070°55'820.3
2018-Jun-15 23:30N 42°21' W 071°03'2 4.3
2018-Jun-15 23:00N 42°20' W 071°00'612.6
2018-Jun-15 22:30N 42°15' W 070°55'816.5
2018-Jun-15 22:00N 42°21' W 071°03'3 6.6
2018-Jun-15 21:30N 42°19' W 070°60'510.0
2018-Jun-15 21:00N 42°15' W 070°55'816.7
2018-Jun-15 20:31N 42°21' W 071°03'0 0.2
2018-Jun-15 20:00N 42°21' W 071°03'1 1.1
2018-Jun-15 19:30N 42°22' W 071°02'0 0.0
2018-Jun-15 19:00N 42°22' W 071°02'1 1.1
2018-Jun-15 18:30N 42°22' W 071°03'0 0.2
2018-Jun-15 18:01N 42°22' W 071°03'1224.2
2018-Jun-15 17:30N 42°27' W 070°48'1632.0
2018-Jun-15 17:00N 42°37' W 070°31'919.0
2018-Jun-15 16:31N 42°43' W 070°22'4 7.1
2018-Jun-15 16:01N 42°40' W 070°24'1 1.8
2018-Jun-15 15:30N 42°40' W 070°25'1019.1
2018-Jun-15 15:00N 42°34' W 070°35'1632.1
2018-Jun-15 14:31N 42°24' W 070°53'816.2
2018-Jun-15 14:00N 42°22' W 071°03'0 0.4
2018-Jun-15 13:31N 42°22' W 071°03'611.3
2018-Jun-15 13:01N 42°17' W 070°58'2 4.5
2018-Jun-15 12:29N 42°16' W 070°55'816.7
2018-Jun-15 12:00N 42°21' W 071°03'510.2
2018-Jun-15 11:30N 42°18' W 070°58'3 5.0
2018-Jun-15 10:51N 42°15' W 070°55'1 3.8
2018-Jun-15 10:30N 42°17' W 070°56'1 0.1
2018-Jun-14 23:50N 42°16' W 070°56'823.5
2018-Jun-14 23:30N 42°21' W 071°03'3 5.5
2018-Jun-14 23:01N 42°20' W 070°60'611.5
2018-Jun-14 22:31N 42°15' W 070°55'816.7
2018-Jun-14 22:00N 42°21' W 071°03'1 2.7
2018-Jun-14 21:30N 42°21' W 071°01'714.1
2018-Jun-14 21:00N 42°15' W 070°55'816.8
2018-Jun-14 20:31N 42°21' W 071°03'0 0.0
2018-Jun-14 20:01N 42°21' W 071°03'0 0.0
2018-Jun-14 19:30N 42°21' W 071°03'0 0.5
2018-Jun-14 19:00N 42°22' W 071°03'0 0.0
2018-Jun-14 18:30N 42°22' W 071°03'0 0.4
2018-Jun-14 18:00N 42°22' W 071°03'1 2.2
2018-Jun-14 17:29N 42°23' W 071°03'  
Track history (hours):
 
Tides and Currents Weather Stations Pressure Air Temp Water Temp Dewpoint Dewpoint Depression Visibility Wind Speed Wind Dir Waves Ship Positions

Asteria

Owner: Boston HarborCruises, Boston, MA. More information available from US FCC via Universal Licensing System and Coast Guard Vessel Documentation Center.

Last reported at 2018-Jun-23 00:50 UTC. Time now 2018-Jun-23 09:52 UTC.
Position N 42°16' W 070°56'.

Length 33 m; draft 2 m.

Type: High speed craft. MMSI: 367367470.

Date/timePositionNaut miles runAvg speedWind from/ knotsBaromVisibWave heightAir tempDewpointWater temp
2018-Jun-23 00:50N 42°16' W 070°56'721.9
2018-Jun-23 00:30N 42°21' W 071°03'2 5.0
2018-Jun-23 00:00N 42°20' W 071°00'611.2
2018-Jun-22 23:30N 42°16' W 070°55'816.6
2018-Jun-22 23:00N 42°21' W 071°03'2 4.1
2018-Jun-22 22:30N 42°20' W 071°00'712.8
2018-Jun-22 22:00N 42°15' W 070°55'714.3
2018-Jun-22 21:31N 42°21' W 071°01'1 2.4
2018-Jun-22 21:00N 42°22' W 071°02'3 6.7
2018-Jun-22 20:30N 42°19' W 070°59'5 9.4
2018-Jun-22 20:00N 42°15' W 070°55'816.5
2018-Jun-22 19:30N 42°21' W 071°02'1 1.0
2018-Jun-22 19:00N 42°22' W 071°03'1 1.1
2018-Jun-22 18:30N 42°22' W 071°02'1 1.3
2018-Jun-22 18:00N 42°22' W 071°03'1 1.5
2018-Jun-22 17:31N 42°21' W 071°02'1631.6
2018-Jun-22 17:00N 42°22' W 070°41'1326.3
2018-Jun-22 16:30N 42°24' W 070°23'0 0.7
2018-Jun-22 15:57N 42°24' W 070°22'1 2.9
2018-Jun-22 15:30N 42°24' W 070°24'3 5.7
2018-Jun-22 15:00N 42°24' W 070°28'1530.9
2018-Jun-22 14:30N 42°22' W 070°48'1121.5
2018-Jun-22 14:00N 42°22' W 071°03'0 0.5
2018-Jun-22 13:30N 42°22' W 071°03'611.7
2018-Jun-22 13:00N 42°17' W 070°57'3 5.1
2018-Jun-22 12:30N 42°15' W 070°55'816.8
2018-Jun-22 12:00N 42°21' W 071°03'510.9
2018-Jun-22 11:31N 42°18' W 070°58'3 5.5
2018-Jun-22 10:58N 42°15' W 070°55'1 2.0
2018-Jun-22 10:30N 42°16' W 070°56'1 1.8
2018-Jun-22 10:00N 42°15' W 070°55'0 0.0
2018-Jun-22 00:01N 42°16' W 070°55'0 6.6
2018-Jun-22 00:00N 42°16' W 070°55'815.8
2018-Jun-21 23:30N 42°21' W 071°03'2 4.5
2018-Jun-21 23:01N 42°20' W 071°00'612.2
2018-Jun-21 22:30N 42°15' W 070°55'816.7
2018-Jun-21 22:00N 42°21' W 071°03'2 4.4
2018-Jun-21 21:31N 42°20' W 071°00'612.6
2018-Jun-21 21:00N 42°15' W 070°55'816.6
2018-Jun-21 20:30N 42°21' W 071°03'1 1.3
2018-Jun-21 20:00N 42°22' W 071°02'1 1.1
2018-Jun-21 19:30N 42°22' W 071°03'0 0.0
2018-Jun-21 19:00N 42°22' W 071°03'0 0.0
2018-Jun-21 18:31N 42°22' W 071°03'0 0.2
2018-Jun-21 18:00N 42°22' W 071°03'5 9.8
2018-Jun-21 17:30N 42°20' W 070°57'1632.5
2018-Jun-21 17:00N 42°18' W 070°35'1631.6
2018-Jun-21 16:30N 42°17' W 070°14'3 5.2
2018-Jun-21 15:59N 42°16' W 070°10'1013.2
2018-Jun-21 15:13N 42°22' W 070°21'732.5
2018-Jun-21 15:00N 42°24' W 070°30'1631.9
2018-Jun-21 14:30N 42°23' W 070°51'917.9
2018-Jun-21 14:01N 42°22' W 071°03'0 0.2
2018-Jun-21 13:30N 42°22' W 071°03'1 1.1
2018-Jun-21 13:00N 42°22' W 071°02'0 0.8
2018-Jun-21 12:30N 42°21' W 071°03'611.2
2018-Jun-21 12:00N 42°17' W 070°57'3 4.4
2018-Jun-21 11:25N 42°15' W 070°55'716.9
2018-Jun-21 11:01N 42°21' W 071°01'2 3.1
2018-Jun-21 10:30N 42°21' W 071°03'815.9
2018-Jun-21 09:59N 42°15' W 070°55'0 0.0
2018-Jun-21 09:30N 42°15' W 070°55'1 0.1
2018-Jun-21 00:59N 42°16' W 070°55'816.0
2018-Jun-21 00:30N 42°21' W 071°03'4 8.6
2018-Jun-21 00:00N 42°18' W 070°59'4 7.7
2018-Jun-20 23:30N 42°16' W 070°55'816.6
2018-Jun-20 23:01N 42°21' W 071°03'3 6.2
2018-Jun-20 22:30N 42°19' W 070°60'510.4
2018-Jun-20 22:00N 42°15' W 070°55'714.0
2018-Jun-20 21:30N 42°21' W 071°01'2 3.1
2018-Jun-20 21:00N 42°21' W 071°03'3 5.8
2018-Jun-20 20:30N 42°20' W 070°60'510.6
2018-Jun-20 20:00N 42°15' W 070°55'816.7
2018-Jun-20 19:30N 42°21' W 071°02'0 0.8
2018-Jun-20 19:00N 42°21' W 071°03'1 1.4
2018-Jun-20 18:30N 42°22' W 071°02'1 1.3
2018-Jun-20 18:00N 42°22' W 071°03'611.2
2018-Jun-20 17:30N 42°21' W 070°56'1733.6
2018-Jun-20 17:01N 42°27' W 070°34'1529.3
2018-Jun-20 16:31N 42°29' W 070°15'1020.4
2018-Jun-20 16:00N 42°27' W 070°28'1 1.5
2018-Jun-20 15:30N 42°27' W 070°27'611.6
2018-Jun-20 15:00N 42°23' W 070°34'1529.7
2018-Jun-20 14:30N 42°21' W 070°54'713.8
2018-Jun-20 14:00N 42°22' W 071°03'510.5
2018-Jun-20 13:30N 42°18' W 070°58'3 6.3
2018-Jun-20 13:00N 42°16' W 070°55'816.5
2018-Jun-20 12:30N 42°21' W 071°03'510.2
2018-Jun-20 12:00N 42°18' W 070°58'3 5.6
2018-Jun-20 11:26N 42°15' W 070°55'717.2
2018-Jun-20 11:01N 42°21' W 071°01'1 2.5
2018-Jun-20 10:30N 42°21' W 071°03'814.7
2018-Jun-20 09:56N 42°15' W 070°55'0 0.0
2018-Jun-20 09:31N 42°15' W 070°55'1 0.1
2018-Jun-20 00:48N 42°16' W 070°56'725.1
2018-Jun-20 00:31N 42°21' W 071°03'2 4.2
2018-Jun-20 00:01N 42°20' W 071°00'612.7
2018-Jun-19 23:31N 42°15' W 070°55'816.6
2018-Jun-19 23:00N 42°21' W 071°03'3 6.9
2018-Jun-19 22:30N 42°19' W 070°59'5 9.8
2018-Jun-19 22:00N 42°15' W 070°55'714.3
2018-Jun-19 21:30N 42°21' W 071°01'1 2.5
2018-Jun-19 21:01N 42°21' W 071°03'2 4.9
2018-Jun-19 20:30N 42°20' W 070°60'611.5
2018-Jun-19 20:00N 42°15' W 070°55'816.5
2018-Jun-19 19:30N 42°21' W 071°02'0 0.8
2018-Jun-19 19:00N 42°21' W 071°03'0 0.5
2018-Jun-19 18:31N 42°21' W 071°03'0 0.6
2018-Jun-19 18:01N 42°22' W 071°02'0 1.0
2018-Jun-19 17:30N 42°22' W 071°03'612.5
2018-Jun-19 17:00N 42°21' W 070°55'1631.4
2018-Jun-19 16:30N 42°25' W 070°34'5 9.0
2018-Jun-19 16:00N 42°27' W 070°28'2 3.5
2018-Jun-19 15:30N 42°25' W 070°26'3 5.2
2018-Jun-19 15:01N 42°24' W 070°29'1631.5
2018-Jun-19 14:29N 42°23' W 070°51'918.6
2018-Jun-19 14:00N 42°22' W 071°03'0 0.0
2018-Jun-19 13:30N 42°22' W 071°03'0 0.0
2018-Jun-19 13:00N 42°22' W 071°03'0 0.5
2018-Jun-19 12:30N 42°21' W 071°03'511.0
2018-Jun-19 12:00N 42°17' W 070°58'3 5.7
2018-Jun-19 11:30N 42°15' W 070°55'611.5
2018-Jun-19 11:00N 42°20' W 070°60'2 4.9
2018-Jun-19 10:30N 42°21' W 071°02'811.9
2018-Jun-19 09:49N 42°15' W 070°55'0 0.0
2018-Jun-19 09:30N 42°15' W 070°55'0 0.0
2018-Jun-19 01:04N 42°15' W 070°55'0 1.4
2018-Jun-19 01:01N 42°15' W 070°55'816.6
2018-Jun-19 00:31N 42°21' W 071°03'2 3.4
2018-Jun-19 00:00N 42°21' W 071°01'713.5
2018-Jun-18 23:30N 42°15' W 070°55'816.9
2018-Jun-18 23:00N 42°21' W 071°03'2 3.8
2018-Jun-18 22:30N 42°21' W 071°01'713.4
2018-Jun-18 22:01N 42°15' W 070°55'714.1
2018-Jun-18 21:31N 42°21' W 071°01'1 2.6
2018-Jun-18 21:01N 42°21' W 071°03'2 4.0
2018-Jun-18 20:30N 42°20' W 071°00'612.4
2018-Jun-18 20:00N 42°15' W 070°55'816.7
2018-Jun-18 19:30N 42°21' W 071°02'0 0.8
2018-Jun-18 19:01N 42°21' W 071°03'1 1.4
2018-Jun-18 18:31N 42°22' W 071°02'1 1.3
2018-Jun-18 18:00N 42°22' W 071°03'0 0.5
2018-Jun-18 17:31N 42°22' W 071°03'1325.5
2018-Jun-18 17:00N 42°21' W 070°45'1326.5
2018-Jun-18 16:31N 42°24' W 070°28'2 3.3
2018-Jun-18 15:58N 42°26' W 070°27'2 3.6
2018-Jun-18 15:30N 42°27' W 070°25'510.9
2018-Jun-18 15:00N 42°24' W 070°32'1528.8
2018-Jun-18 14:30N 42°21' W 070°51'918.0
2018-Jun-18 14:00N 42°22' W 071°03'1 1.3
2018-Jun-18 13:30N 42°22' W 071°02'5 9.3
2018-Jun-18 13:00N 42°18' W 070°58'3 6.9
2018-Jun-18 12:30N 42°15' W 070°55'816.5
2018-Jun-18 12:00N 42°21' W 071°03'5 9.6
2018-Jun-18 11:30N 42°18' W 070°58'4 6.6
2018-Jun-18 10:58N 42°15' W 070°55'1 1.5
2018-Jun-18 10:30N 42°16' W 070°56'1 1.3
2018-Jun-18 10:00N 42°15' W 070°55'0 0.3
2018-Jun-18 09:30N 42°15' W 070°55'1 0.1
2018-Jun-17 23:26N 42°16' W 070°56'717.1
2018-Jun-17 23:00N 42°22' W 071°03'2 4.2
2018-Jun-17 22:30N 42°21' W 071°00'1631.3
2018-Jun-17 22:00N 42°23' W 070°40'1122.8
2018-Jun-17 21:30N 42°26' W 070°25'1 1.1
2018-Jun-17 21:00N 42°26' W 070°24'4 7.0
2018-Jun-17 20:30N 42°24' W 070°28'1631.6
2018-Jun-17 20:00N 42°23' W 070°50'1019.8
2018-Jun-17 19:30N 42°22' W 071°03'0 0.0
2018-Jun-17 19:00N 42°22' W 071°03'1020.1
2018-Jun-17 18:31N 42°25' W 070°51'1632.2
2018-Jun-17 18:00N 42°36' W 070°34'918.2
2018-Jun-17 17:31N 42°29' W 070°26'4 7.2
2018-Jun-17 17:00N 42°25' W 070°24'1 2.2
2018-Jun-17 16:30N 42°24' W 070°25'612.0
2018-Jun-17 16:00N 42°25' W 070°33'1530.8
2018-Jun-17 15:30N 42°22' W 070°54'713.5
2018-Jun-17 15:00N 42°22' W 071°03'0 0.0
2018-Jun-17 14:31N 42°22' W 071°03'1 2.5
2018-Jun-17 14:00N 42°23' W 071°03'0 0.3
2018-Jun-17 13:30N 42°23' W 071°03'1 2.7
2018-Jun-17 13:01N 42°22' W 071°02'714.7
2018-Jun-17 12:30N 42°16' W 070°56'0 0.0
2018-Jun-17 00:45N 42°16' W 070°56'729.3
2018-Jun-17 00:30N 42°21' W 071°02'1 1.8
2018-Jun-17 00:01N 42°22' W 071°03'0 0.0
2018-Jun-16 23:31N 42°22' W 071°03'5 9.5
2018-Jun-16 23:01N 42°20' W 070°57'1631.8
2018-Jun-16 22:31N 42°23' W 070°36'917.2
2018-Jun-16 22:00N 42°25' W 070°24'1 2.9
2018-Jun-16 21:30N 42°25' W 070°26'0 0.8
2018-Jun-16 21:00N 42°25' W 070°26'2 4.8
2018-Jun-16 20:31N 42°24' W 070°29'1732.4
2018-Jun-16 19:58N 42°21' W 070°52'817.0
2018-Jun-16 19:30N 42°22' W 071°03'0 0.0
2018-Jun-16 19:00N 42°22' W 071°03'5 9.2
2018-Jun-16 18:30N 42°20' W 070°57'1529.6
2018-Jun-16 18:01N 42°30' W 070°42'1428.9
2018-Jun-16 17:30N 42°38' W 070°26'0 0.5
2018-Jun-16 17:00N 42°38' W 070°26'1 3.0
2018-Jun-16 16:31N 42°40' W 070°26'1019.3
2018-Jun-16 16:00N 42°33' W 070°36'1631.6
2018-Jun-16 15:30N 42°23' W 070°53'815.9
2018-Jun-16 15:00N 42°22' W 071°03'0 0.0
2018-Jun-16 14:30N 42°22' W 071°03'0 0.2
2018-Jun-16 14:00N 42°22' W 071°03'1 1.1
2018-Jun-16 13:30N 42°22' W 071°02'3 6.5
2018-Jun-16 13:00N 42°19' W 070°59'3 6.9
2018-Jun-16 12:30N 42°17' W 070°56'1 0.1
2018-Jun-15 23:54N 42°16' W 070°55'820.3
2018-Jun-15 23:30N 42°21' W 071°03'2 4.3
2018-Jun-15 23:00N 42°20' W 071°00'612.6
2018-Jun-15 22:30N 42°15' W 070°55'816.5
2018-Jun-15 22:00N 42°21' W 071°03'3 6.6
2018-Jun-15 21:30N 42°19' W 070°60'510.0
2018-Jun-15 21:00N 42°15' W 070°55'816.7
2018-Jun-15 20:31N 42°21' W 071°03'0 0.2
2018-Jun-15 20:00N 42°21' W 071°03'1 1.1
2018-Jun-15 19:30N 42°22' W 071°02'0 0.0
2018-Jun-15 19:00N 42°22' W 071°02'1 1.1
2018-Jun-15 18:30N 42°22' W 071°03'0 0.2
2018-Jun-15 18:01N 42°22' W 071°03'1224.2
2018-Jun-15 17:30N 42°27' W 070°48'1632.0
2018-Jun-15 17:00N 42°37' W 070°31'919.0
2018-Jun-15 16:31N 42°43' W 070°22'4 7.1
2018-Jun-15 16:01N 42°40' W 070°24'1 1.8
2018-Jun-15 15:30N 42°40' W 070°25'1019.1
2018-Jun-15 15:00N 42°34' W 070°35'1632.1
2018-Jun-15 14:31N 42°24' W 070°53'816.2
2018-Jun-15 14:00N 42°22' W 071°03'0 0.4
2018-Jun-15 13:31N 42°22' W 071°03'611.3
2018-Jun-15 13:01N 42°17' W 070°58'2 4.5
2018-Jun-15 12:29N 42°16' W 070°55'816.7
2018-Jun-15 12:00N 42°21' W 071°03'510.2
2018-Jun-15 11:30N 42°18' W 070°58'3 5.0
2018-Jun-15 10:51N 42°15' W 070°55'1 3.8
2018-Jun-15 10:30N 42°17' W 070°56'1 0.1
2018-Jun-14 23:50N 42°16' W 070°56'823.5
2018-Jun-14 23:30N 42°21' W 071°03'3 5.5
2018-Jun-14 23:01N 42°20' W 070°60'611.5
2018-Jun-14 22:31N 42°15' W 070°55'816.7
2018-Jun-14 22:00N 42°21' W 071°03'1 2.7
2018-Jun-14 21:30N 42°21' W 071°01'714.1
2018-Jun-14 21:00N 42°15' W 070°55'816.8
2018-Jun-14 20:31N 42°21' W 071°03'0 0.0
2018-Jun-14 20:01N 42°21' W 071°03'0 0.0
2018-Jun-14 19:30N 42°21' W 071°03'0 0.5
2018-Jun-14 19:00N 42°22' W 071°03'0 0.0
2018-Jun-14 18:30N 42°22' W 071°03'0 0.4
2018-Jun-14 18:00N 42°22' W 071°03'1 2.2
2018-Jun-14 17:29N 42°23' W 071°03'  

Dump ship's entire track history